Weather History for KUTA - February, 2014

Change the Weather History Date:

Wednesday, February 26, 2014

  Actual Average (KMEM) Record (KMEM)
Temperature  
Mean Temperature 29 °F 49 °F  
Max Temperature 35 °F 58 °F 80 °F (1917)
Min Temperature 23 °F 39 °F 16 °F (1894)
Degree Days  
Heating Degree Days 36 16  
Month to date heating degree days 515  
Since 1 July heating degree days 2417  
Cooling Degree Days 0 0  
Month to date cooling degree days 0  
Year to date cooling degree days 1  
Moisture  
Dew Point 18 °F    
Average Humidity 61    
Maximum Humidity 81    
Minimum Humidity 41    
Precipitation  
Precipitation 0.00 in 0.16 in 3.09 in (2000)
Month to date precipitation 4.06  
Year to date precipitation 8.04  
Snow  
Snow 0.00 in 0.10 in 1.50 in (1891)
Month to date snowfall 1.3  
Since 1 July snowfall 3.4  
Snow Depth -    
Sea Level Pressure  
Sea Level Pressure 30.19 in    
Wind  
Wind Speed 17 mph (North)    
Max Wind Speed 28 mph    
Max Gust Speed 34 mph    
Visibility 10 miles    
Events      
T = Trace of Precipitation, MM = Missing Value Source: NWS Daily Summary

Daily Weather History Graph

Daily Weather History Graph

Search for Another Location

Airport or City:

Trip Planner

Search our weather history database for the weather conditions in past years. The results will help you decide how hot, cold, wet, or windy it might be!

Date:

Astronomy

Feb. 26, 2014 Rise Set
Actual Time 6:34 AM CST 5:54 PM CST
Civil Twilight 6:08 AM CST 6:20 PM CST
Nautical Twilight 5:39 AM CST 6:49 PM CST
Astronomical Twilight 5:10 AM CST 7:18 PM CST
Moon 4:15 AM CST (2/26) 3:13 PM CST (2/26)
Length of Visible Light 12h 11m
Length of Day
11h 20m
Waning Crescent, 10% of the Moon is Illuminated
Feb 26
Waning Crescent
Mar 1
New
Mar 8
First Quarter
Mar 16
Full
Mar 23
Last Quarter

Hourly Weather History & Observations

Time (CST) Temp. Windchill Dew Point Humidity Pressure Visibility Wind Dir Wind Speed Gust Speed Precip Events Conditions
12:15 AM 35.6 °F 25.2 °F 30.2 °F 81% 30.14 in 10.0 mi North 18.4 mph 23.0 mph N/A   Overcast
12:35 AM 35.6 °F 25.9 °F 30.2 °F 81% 30.14 in 10.0 mi North 16.1 mph 23.0 mph N/A   Overcast
12:55 AM 35.6 °F 25.5 °F 28.4 °F 75% 30.15 in 10.0 mi North 17.3 mph - N/A   Overcast
1:15 AM 35.6 °F 25.9 °F 28.4 °F 75% 30.16 in 10.0 mi North 16.1 mph 24.2 mph N/A   Overcast
1:35 AM 33.8 °F 21.9 °F 28.4 °F 81% 30.17 in 10.0 mi North 21.9 mph - N/A   Overcast
1:55 AM 33.8 °F 21.3 °F 26.6 °F 75% 30.18 in 10.0 mi North 24.2 mph 27.6 mph N/A   Mostly Cloudy
2:15 AM 33.8 °F 21.9 °F 26.6 °F 75% 30.19 in 10.0 mi North 21.9 mph 28.8 mph N/A   Scattered Clouds
2:35 AM 32.0 °F 19.2 °F 24.8 °F 75% 30.20 in 10.0 mi North 23.0 mph 27.6 mph N/A   Clear
2:55 AM 32.0 °F 18.9 °F 23.0 °F 69% 30.22 in 10.0 mi North 24.2 mph 28.8 mph N/A   Scattered Clouds
3:15 AM 32.0 °F 18.1 °F 23.0 °F 69% 30.22 in 10.0 mi North 27.6 mph 34.5 mph N/A   Scattered Clouds
3:35 AM 32.0 °F 18.1 °F 21.2 °F 64% 30.22 in 10.0 mi North 27.6 mph 34.5 mph N/A   Mostly Cloudy
3:55 AM 32.0 °F 18.6 °F 23.0 °F 69% 30.21 in 10.0 mi North 25.3 mph 34.5 mph N/A   Scattered Clouds
4:15 AM 32.0 °F 19.2 °F 23.0 °F 69% 30.22 in 10.0 mi North 23.0 mph 31.1 mph N/A   Scattered Clouds
4:35 AM 30.2 °F 17.4 °F 23.0 °F 75% 30.22 in 10.0 mi North 20.7 mph 32.2 mph N/A   Mostly Cloudy
4:55 AM 30.2 °F 17.8 °F 23.0 °F 75% 30.22 in 10.0 mi North 19.6 mph 27.6 mph N/A   Mostly Cloudy
5:15 AM 30.2 °F 17.4 °F 23.0 °F 75% 30.23 in 10.0 mi North 20.7 mph 25.3 mph N/A   Mostly Cloudy
5:35 AM 30.2 °F 17.8 °F 21.2 °F 69% 30.23 in 10.0 mi North 19.6 mph 25.3 mph N/A   Scattered Clouds
5:55 AM 30.2 °F 17.4 °F 21.2 °F 69% 30.23 in 10.0 mi North 20.7 mph 24.2 mph N/A   Scattered Clouds
6:15 AM 30.2 °F 17.8 °F 21.2 °F 69% 30.23 in 10.0 mi North 19.6 mph 26.5 mph N/A   Scattered Clouds
6:35 AM 30.2 °F 17.8 °F 21.2 °F 69% 30.23 in 10.0 mi North 19.6 mph 25.3 mph N/A   Scattered Clouds
6:55 AM 28.4 °F 16.2 °F 21.2 °F 74% 30.23 in 10.0 mi North 17.3 mph 24.2 mph N/A   Scattered Clouds
7:15 AM 30.2 °F 18.5 °F 21.2 °F 69% 30.24 in 10.0 mi North 17.3 mph - N/A   Mostly Cloudy
7:35 AM 30.2 °F 18.9 °F 21.2 °F 69% 30.24 in 10.0 mi North 16.1 mph 23.0 mph N/A   Mostly Cloudy
7:55 AM 30.2 °F 18.5 °F 21.2 °F 69% 30.25 in 10.0 mi North 17.3 mph 25.3 mph N/A   Mostly Cloudy
8:15 AM 30.2 °F 17.4 °F 19.4 °F 64% 30.26 in 10.0 mi North 20.7 mph 25.3 mph N/A   Scattered Clouds
8:35 AM 30.2 °F 18.1 °F 19.4 °F 64% 30.27 in 10.0 mi NNE 18.4 mph 26.5 mph N/A   Clear
8:55 AM 30.2 °F 18.1 °F 21.2 °F 69% 30.27 in 10.0 mi North 18.4 mph - N/A   Scattered Clouds
9:15 AM 32.0 °F 20.8 °F 19.4 °F 60% 30.28 in 10.0 mi North 17.3 mph 25.3 mph N/A   Mostly Cloudy
9:35 AM 30.2 °F 18.5 °F 19.4 °F 64% 30.27 in 10.0 mi North 17.3 mph 26.5 mph N/A   Scattered Clouds
9:55 AM 32.0 °F 20.1 °F 19.4 °F 60% 30.26 in 10.0 mi North 19.6 mph 25.3 mph N/A   Scattered Clouds
10:15 AM 32.0 °F 20.1 °F 19.4 °F 60% 30.26 in 10.0 mi North 19.6 mph 28.8 mph N/A   Clear
10:35 AM 32.0 °F 19.8 °F 17.6 °F 55% 30.26 in 10.0 mi North 20.7 mph 25.3 mph N/A   Clear
10:55 AM 32.0 °F 20.1 °F 17.6 °F 55% 30.26 in 10.0 mi North 19.6 mph 26.5 mph N/A   Clear
11:15 AM 32.0 °F 19.8 °F 15.8 °F 51% 30.25 in 10.0 mi North 20.7 mph 25.3 mph N/A   Clear
11:35 AM 32.0 °F 20.5 °F 14.0 °F 48% 30.25 in 10.0 mi North 18.4 mph 25.3 mph N/A   Clear
11:55 AM 32.0 °F 20.1 °F 12.2 °F 44% 30.24 in 10.0 mi North 19.6 mph 27.6 mph N/A   Clear
12:15 PM 32.0 °F 22.5 °F 12.2 °F 44% 30.23 in 10.0 mi North 12.7 mph 24.2 mph N/A   Clear
12:35 PM 32.0 °F 20.5 °F 12.2 °F 44% 30.21 in 10.0 mi North 18.4 mph 24.2 mph N/A   Clear
12:55 PM 33.8 °F 23.2 °F 14.0 °F 44% 30.19 in 10.0 mi North 17.3 mph 21.9 mph N/A   Clear
1:15 PM 33.8 °F 23.5 °F 14.0 °F 44% 30.18 in 10.0 mi North 16.1 mph - N/A   Clear
1:35 PM 33.8 °F 23.5 °F 14.0 °F 44% 30.18 in 10.0 mi North 16.1 mph 23.0 mph N/A   Clear
1:55 PM 33.8 °F 22.8 °F 14.0 °F 44% 30.18 in 10.0 mi North 18.4 mph 25.3 mph N/A   Clear
2:15 PM 33.8 °F 23.2 °F 15.8 °F 48% 30.18 in 10.0 mi North 17.3 mph 24.2 mph N/A   Clear
2:35 PM 33.8 °F 22.8 °F 17.6 °F 52% 30.16 in 10.0 mi North 18.4 mph 24.2 mph N/A   Clear
2:55 PM 33.8 °F 23.5 °F 14.0 °F 44% 30.16 in 10.0 mi North 16.1 mph 25.3 mph N/A   Clear
3:15 PM 33.8 °F 22.8 °F 14.0 °F 44% 30.16 in 10.0 mi NNW 18.4 mph 23.0 mph N/A   Clear
3:35 PM 33.8 °F 23.5 °F 12.2 °F 41% 30.16 in 10.0 mi North 16.1 mph 23.0 mph N/A   Clear
3:55 PM 33.8 °F 23.5 °F 14.0 °F 44% 30.15 in 10.0 mi North 16.1 mph 21.9 mph N/A   Clear
4:15 PM 33.8 °F 24.8 °F 12.2 °F 41% 30.15 in 10.0 mi North 12.7 mph - N/A   Clear
4:35 PM 33.8 °F 27.0 °F 12.2 °F 41% 30.13 in 10.0 mi North 8.1 mph - N/A   Clear
4:55 PM 32.0 °F 23.0 °F 12.2 °F 44% 30.12 in 10.0 mi North 11.5 mph 17.3 mph N/A   Clear
5:15 PM 32.0 °F 24.2 °F 12.2 °F 44% 30.12 in 10.0 mi North 9.2 mph - N/A   Clear
5:35 PM 32.0 °F 24.8 °F 12.2 °F 44% 30.12 in 10.0 mi North 8.1 mph - N/A   Clear
5:55 PM 30.2 °F 21.9 °F 12.2 °F 47% 30.12 in 10.0 mi North 9.2 mph - N/A   Clear
6:15 PM 30.2 °F 25.4 °F 14.0 °F 51% 30.13 in 10.0 mi North 4.6 mph - N/A   Clear
6:35 PM 28.4 °F 24.6 °F 14.0 °F 55% 30.13 in 10.0 mi North 3.5 mph - N/A   Clear
6:55 PM 28.4 °F 24.6 °F 14.0 °F 55% 30.13 in 10.0 mi North 3.5 mph - N/A   Clear
7:15 PM 28.4 °F - 15.8 °F 59% 30.13 in 10.0 mi Calm Calm - N/A   Clear
7:35 PM 26.6 °F - 14.0 °F 59% 30.13 in 10.0 mi Calm Calm - N/A   Clear
7:55 PM 28.4 °F 24.6 °F 17.6 °F 64% 30.13 in 10.0 mi NNE 3.5 mph - N/A   Clear
8:15 PM 28.4 °F - 17.6 °F 64% 30.13 in 10.0 mi Calm Calm - N/A   Clear
8:35 PM 26.6 °F - 17.6 °F 69% 30.14 in 10.0 mi Calm Calm - N/A   Clear
8:55 PM 26.6 °F - 17.6 °F 69% 30.14 in 10.0 mi Calm Calm - N/A   Clear
9:15 PM 28.4 °F - 17.6 °F 64% 30.14 in 10.0 mi Calm Calm - N/A   Clear
9:35 PM 26.6 °F - 15.8 °F 64% 30.14 in 10.0 mi Calm Calm - N/A   Clear
9:55 PM 26.6 °F - 15.8 °F 64% 30.14 in 10.0 mi Calm Calm - N/A   Clear
10:15 PM 24.8 °F - 17.6 °F 74% 30.14 in 10.0 mi Calm Calm - N/A   Clear
10:35 PM 23.0 °F 17.0 °F 17.6 °F 80% 30.14 in 10.0 mi South 4.6 mph - N/A   Clear
10:55 PM 24.8 °F 19.1 °F 17.6 °F 74% 30.13 in 10.0 mi SSW 4.6 mph - N/A   Clear
11:15 PM 26.6 °F 21.2 °F 17.6 °F 69% 30.13 in 10.0 mi SSW 4.6 mph - N/A   Clear
11:35 PM 24.8 °F 19.1 °F 17.6 °F 74% 30.12 in 10.0 mi SSW 4.6 mph - N/A   Clear
11:55 PM 26.6 °F 21.2 °F 17.6 °F 69% 30.12 in 10.0 mi SSW 4.6 mph - N/A   Clear